Allegan, Michigan
Current Conditions -  °F | °C
As of 6:53 AM on Saturday 20 Dec 2014 (Local Time) from KBIV Reporting Station
Haze Haze  
Wind Chill: 21°   Ceiling: Unl
Heat Index: 21°   Visibility: 6mi
Dew Point: 17°   Wind: 3mph
Humidity: 85%   Direction: 150°SSE
Pressure: 30.28"   Gusts: NA
Location:  42.53°N, 85.86°W
Report Text: KBIV 201153Z AUTO 15003KT 6SM BR CLR M06/M08 A3028 RMK AO2 SLP265 I1000 I6000 T10611083 11044 21061 54000
Loading
Personal Weather Stations






























Interactive Weather Map New forecast layout! Learn more

10-Day Weather Forecast

Advertisements
Track Severe Weather on mobile